sensor_id;sensor_type;location;lat;lon;timestamp;P1;durP1;ratioP1;P2;durP2;ratioP2
76204;SDS011;64986;55.672;37.628;2023-05-14T00:00:16;5.13;;;1.60;;
76204;SDS011;64986;55.672;37.628;2023-05-14T00:02:41;3.22;;;1.70;;
76204;SDS011;64986;55.672;37.628;2023-05-14T00:05:07;3.47;;;2.17;;
76204;SDS011;64986;55.672;37.628;2023-05-14T00:07:33;2.75;;;1.65;;
76204;SDS011;64986;55.672;37.628;2023-05-14T00:09:58;2.95;;;2.05;;
76204;SDS011;64986;55.672;37.628;2023-05-14T00:12:24;7.90;;;2.83;;
76204;SDS011;64986;55.672;37.628;2023-05-14T00:14:50;4.78;;;2.20;;
76204;SDS011;64986;55.672;37.628;2023-05-14T00:17:16;6.85;;;2.13;;
76204;SDS011;64986;55.672;37.628;2023-05-14T00:19:41;3.78;;;2.03;;
76204;SDS011;64986;55.672;37.628;2023-05-14T00:22:07;3.92;;;2.17;;
76204;SDS011;64986;55.672;37.628;2023-05-14T00:24:33;5.20;;;2.10;;
76204;SDS011;64986;55.672;37.628;2023-05-14T00:26:58;4.63;;;2.35;;
76204;SDS011;64986;55.672;37.628;2023-05-14T00:29:23;5.60;;;2.15;;
76204;SDS011;64986;55.672;37.628;2023-05-14T00:31:49;3.42;;;1.98;;
76204;SDS011;64986;55.672;37.628;2023-05-14T00:34:14;5.20;;;1.75;;
76204;SDS011;64986;55.672;37.628;2023-05-14T00:36:39;5.50;;;2.30;;
76204;SDS011;64986;55.672;37.628;2023-05-14T00:39:05;7.28;;;2.50;;
76204;SDS011;64986;55.672;37.628;2023-05-14T00:41:30;5.80;;;2.22;;
76204;SDS011;64986;55.672;37.628;2023-05-14T00:43:56;4.78;;;2.38;;
76204;SDS011;64986;55.672;37.628;2023-05-14T00:46:21;5.18;;;2.45;;
76204;SDS011;64986;55.672;37.628;2023-05-14T00:48:46;8.98;;;2.00;;
76204;SDS011;64986;55.672;37.628;2023-05-14T00:51:12;6.47;;;2.00;;
76204;SDS011;64986;55.672;37.628;2023-05-14T00:53:37;3.85;;;2.10;;
76204;SDS011;64986;55.672;37.628;2023-05-14T00:56:03;6.25;;;1.83;;
76204;SDS011;64986;55.672;37.628;2023-05-14T00:58:29;3.15;;;1.88;;
76204;SDS011;64986;55.672;37.628;2023-05-14T01:00:54;7.10;;;2.70;;
76204;SDS011;64986;55.672;37.628;2023-05-14T01:03:20;3.40;;;2.13;;
76204;SDS011;64986;55.672;37.628;2023-05-14T01:10:48;6.07;;;1.65;;
76204;SDS011;64986;55.672;37.628;2023-05-14T01:13:23;2.42;;;1.73;;
76204;SDS011;64986;55.672;37.628;2023-05-14T01:15:50;2.28;;;1.85;;
76204;SDS011;64986;55.672;37.628;2023-05-14T01:18:17;4.53;;;2.08;;
76204;SDS011;64986;55.672;37.628;2023-05-14T01:20:43;4.78;;;1.88;;
76204;SDS011;64986;55.672;37.628;2023-05-14T01:23:08;2.78;;;1.55;;
76204;SDS011;64986;55.672;37.628;2023-05-14T01:25:34;2.95;;;1.80;;
76204;SDS011;64986;55.672;37.628;2023-05-14T01:28:08;3.03;;;1.67;;
76204;SDS011;64986;55.672;37.628;2023-05-14T01:30:38;3.40;;;1.73;;
76204;SDS011;64986;55.672;37.628;2023-05-14T01:33:05;4.55;;;2.10;;
76204;SDS011;64986;55.672;37.628;2023-05-14T01:35:31;3.25;;;1.58;;
76204;SDS011;64986;55.672;37.628;2023-05-14T01:38:00;4.35;;;2.47;;
76204;SDS011;64986;55.672;37.628;2023-05-14T01:40:26;4.93;;;4.00;;
76204;SDS011;64986;55.672;37.628;2023-05-14T01:42:51;3.17;;;1.85;;
76204;SDS011;64986;55.672;37.628;2023-05-14T01:45:20;2.72;;;1.90;;
76204;SDS011;64986;55.672;37.628;2023-05-14T01:47:45;4.72;;;1.90;;
76204;SDS011;64986;55.672;37.628;2023-05-14T01:50:11;5.50;;;1.88;;
76204;SDS011;64986;55.672;37.628;2023-05-14T01:52:36;3.10;;;1.60;;
76204;SDS011;64986;55.672;37.628;2023-05-14T01:55:02;2.53;;;1.60;;
76204;SDS011;64986;55.672;37.628;2023-05-14T01:57:29;4.75;;;1.98;;
76204;SDS011;64986;55.672;37.628;2023-05-14T01:59:54;2.88;;;2.10;;
76204;SDS011;64986;55.672;37.628;2023-05-14T02:02:19;3.60;;;1.80;;
76204;SDS011;64986;55.672;37.628;2023-05-14T02:04:45;4.85;;;2.10;;
76204;SDS011;64986;55.672;37.628;2023-05-14T02:07:10;3.92;;;1.88;;
76204;SDS011;64986;55.672;37.628;2023-05-14T02:09:35;3.47;;;1.88;;
76204;SDS011;64986;55.672;37.628;2023-05-14T02:12:01;3.83;;;2.05;;
76204;SDS011;64986;55.672;37.628;2023-05-14T02:14:26;5.80;;;2.00;;
76204;SDS011;64986;55.672;37.628;2023-05-14T02:16:51;2.45;;;1.90;;
76204;SDS011;64986;55.672;37.628;2023-05-14T02:19:17;3.05;;;1.52;;
76204;SDS011;64986;55.672;37.628;2023-05-14T02:21:42;6.68;;;2.72;;
76204;SDS011;64986;55.672;37.628;2023-05-14T02:24:07;8.20;;;1.88;;
76204;SDS011;64986;55.672;37.628;2023-05-14T02:26:33;5.70;;;2.50;;
76204;SDS011;64986;55.672;37.628;2023-05-14T02:28:58;5.85;;;2.20;;
76204;SDS011;64986;55.672;37.628;2023-05-14T02:31:23;3.90;;;2.33;;
76204;SDS011;64986;55.672;37.628;2023-05-14T02:33:49;3.58;;;1.85;;
76204;SDS011;64986;55.672;37.628;2023-05-14T02:36:14;5.50;;;2.10;;
76204;SDS011;64986;55.672;37.628;2023-05-14T02:38:40;3.53;;;2.00;;
76204;SDS011;64986;55.672;37.628;2023-05-14T02:41:05;4.40;;;2.45;;
76204;SDS011;64986;55.672;37.628;2023-05-14T02:43:30;4.13;;;1.80;;
76204;SDS011;64986;55.672;37.628;2023-05-14T02:45:56;5.80;;;2.10;;
76204;SDS011;64986;55.672;37.628;2023-05-14T02:48:21;2.40;;;1.50;;
76204;SDS011;64986;55.672;37.628;2023-05-14T02:50:48;4.93;;;1.75;;
76204;SDS011;64986;55.672;37.628;2023-05-14T02:53:13;7.57;;;1.90;;
76204;SDS011;64986;55.672;37.628;2023-05-14T02:55:38;7.65;;;2.28;;
76204;SDS011;64986;55.672;37.628;2023-05-14T02:58:04;6.47;;;2.00;;
76204;SDS011;64986;55.672;37.628;2023-05-14T03:00:29;3.97;;;1.90;;
76204;SDS011;64986;55.672;37.628;2023-05-14T03:02:54;4.38;;;2.00;;
76204;SDS011;64986;55.672;37.628;2023-05-14T03:05:20;2.42;;;1.38;;
76204;SDS011;64986;55.672;37.628;2023-05-14T03:07:45;2.80;;;1.40;;
76204;SDS011;64986;55.672;37.628;2023-05-14T03:10:10;3.45;;;1.90;;
76204;SDS011;64986;55.672;37.628;2023-05-14T03:12:36;2.22;;;1.63;;
76204;SDS011;64986;55.672;37.628;2023-05-14T03:15:01;5.25;;;1.30;;
76204;SDS011;64986;55.672;37.628;2023-05-14T03:17:26;3.40;;;1.80;;
76204;SDS011;64986;55.672;37.628;2023-05-14T03:19:52;6.03;;;1.90;;
76204;SDS011;64986;55.672;37.628;2023-05-14T03:22:17;3.10;;;1.70;;
76204;SDS011;64986;55.672;37.628;2023-05-14T03:24:43;7.28;;;1.50;;
76204;SDS011;64986;55.672;37.628;2023-05-14T03:27:08;2.75;;;1.52;;
76204;SDS011;64986;55.672;37.628;2023-05-14T03:29:33;5.32;;;2.00;;
76204;SDS011;64986;55.672;37.628;2023-05-14T03:31:59;2.40;;;1.90;;
76204;SDS011;64986;55.672;37.628;2023-05-14T03:34:24;3.83;;;1.52;;
76204;SDS011;64986;55.672;37.628;2023-05-14T03:36:49;4.45;;;1.70;;
76204;SDS011;64986;55.672;37.628;2023-05-14T03:39:14;2.83;;;1.67;;
76204;SDS011;64986;55.672;37.628;2023-05-14T03:41:44;3.33;;;1.75;;
76204;SDS011;64986;55.672;37.628;2023-05-14T03:44:09;2.97;;;1.75;;
76204;SDS011;64986;55.672;37.628;2023-05-14T03:46:34;2.50;;;1.88;;
76204;SDS011;64986;55.672;37.628;2023-05-14T03:49:00;4.35;;;1.92;;
76204;SDS011;64986;55.672;37.628;2023-05-14T03:51:25;2.33;;;1.63;;
76204;SDS011;64986;55.672;37.628;2023-05-14T03:53:50;3.90;;;1.80;;
76204;SDS011;64986;55.672;37.628;2023-05-14T03:56:15;5.05;;;1.70;;
76204;SDS011;64986;55.672;37.628;2023-05-14T03:58:41;2.15;;;1.80;;
76204;SDS011;64986;55.672;37.628;2023-05-14T04:01:06;5.10;;;2.05;;
76204;SDS011;64986;55.672;37.628;2023-05-14T04:03:32;7.03;;;1.65;;
76204;SDS011;64986;55.672;37.628;2023-05-14T04:05:57;2.10;;;1.75;;
76204;SDS011;64986;55.672;37.628;2023-05-14T04:08:22;2.33;;;1.50;;
76204;SDS011;64986;55.672;37.628;2023-05-14T04:10:48;2.05;;;1.50;;
76204;SDS011;64986;55.672;37.628;2023-05-14T04:13:13;3.15;;;1.40;;
76204;SDS011;64986;55.672;37.628;2023-05-14T04:15:39;2.40;;;1.80;;
76204;SDS011;64986;55.672;37.628;2023-05-14T04:18:04;3.03;;;1.70;;
76204;SDS011;64986;55.672;37.628;2023-05-14T04:20:30;2.67;;;1.58;;
76204;SDS011;64986;55.672;37.628;2023-05-14T04:22:55;2.80;;;1.73;;
76204;SDS011;64986;55.672;37.628;2023-05-14T04:25:20;5.03;;;1.80;;
76204;SDS011;64986;55.672;37.628;2023-05-14T04:27:46;3.53;;;1.83;;
76204;SDS011;64986;55.672;37.628;2023-05-14T04:30:11;4.28;;;1.38;;
76204;SDS011;64986;55.672;37.628;2023-05-14T04:32:37;3.70;;;1.60;;
76204;SDS011;64986;55.672;37.628;2023-05-14T04:35:03;4.93;;;2.42;;
76204;SDS011;64986;55.672;37.628;2023-05-14T04:37:28;7.05;;;1.80;;
76204;SDS011;64986;55.672;37.628;2023-05-14T04:39:54;4.25;;;1.65;;
76204;SDS011;64986;55.672;37.628;2023-05-14T04:42:19;3.28;;;1.80;;
76204;SDS011;64986;55.672;37.628;2023-05-14T04:44:45;6.03;;;1.88;;
76204;SDS011;64986;55.672;37.628;2023-05-14T04:47:10;2.83;;;1.50;;
76204;SDS011;64986;55.672;37.628;2023-05-14T04:49:36;5.30;;;1.98;;
76204;SDS011;64986;55.672;37.628;2023-05-14T04:52:01;6.60;;;1.55;;
76204;SDS011;64986;55.672;37.628;2023-05-14T04:54:27;5.85;;;1.67;;
76204;SDS011;64986;55.672;37.628;2023-05-14T04:56:52;9.95;;;1.95;;
76204;SDS011;64986;55.672;37.628;2023-05-14T04:59:19;7.20;;;1.90;;
76204;SDS011;64986;55.672;37.628;2023-05-14T05:01:45;3.55;;;2.45;;
76204;SDS011;64986;55.672;37.628;2023-05-14T05:04:10;5.10;;;1.88;;
76204;SDS011;64986;55.672;37.628;2023-05-14T05:06:36;2.38;;;1.67;;
76204;SDS011;64986;55.672;37.628;2023-05-14T05:09:01;9.63;;;1.98;;
76204;SDS011;64986;55.672;37.628;2023-05-14T05:11:26;4.85;;;1.67;;
76204;SDS011;64986;55.672;37.628;2023-05-14T05:13:52;4.72;;;1.77;;
76204;SDS011;64986;55.672;37.628;2023-05-14T05:16:17;3.33;;;2.00;;
76204;SDS011;64986;55.672;37.628;2023-05-14T05:18:42;4.03;;;1.60;;
76204;SDS011;64986;55.672;37.628;2023-05-14T05:21:09;3.47;;;1.88;;
76204;SDS011;64986;55.672;37.628;2023-05-14T05:23:34;3.75;;;1.52;;
76204;SDS011;64986;55.672;37.628;2023-05-14T05:26:00;3.53;;;1.60;;
76204;SDS011;64986;55.672;37.628;2023-05-14T05:28:25;5.07;;;1.90;;
76204;SDS011;64986;55.672;37.628;2023-05-14T05:30:51;5.53;;;1.83;;
76204;SDS011;64986;55.672;37.628;2023-05-14T05:33:16;5.35;;;1.70;;
76204;SDS011;64986;55.672;37.628;2023-05-14T05:35:41;2.20;;;1.42;;
76204;SDS011;64986;55.672;37.628;2023-05-14T05:38:08;3.83;;;1.52;;
76204;SDS011;64986;55.672;37.628;2023-05-14T05:40:33;5.55;;;1.40;;
76204;SDS011;64986;55.672;37.628;2023-05-14T05:42:59;4.95;;;1.60;;
76204;SDS011;64986;55.672;37.628;2023-05-14T05:45:24;5.78;;;1.58;;
76204;SDS011;64986;55.672;37.628;2023-05-14T05:47:50;7.53;;;1.45;;
76204;SDS011;64986;55.672;37.628;2023-05-14T05:50:15;2.53;;;1.50;;
76204;SDS011;64986;55.672;37.628;2023-05-14T05:52:40;5.25;;;1.55;;
76204;SDS011;64986;55.672;37.628;2023-05-14T05:55:06;2.00;;;1.30;;
76204;SDS011;64986;55.672;37.628;2023-05-14T05:57:31;4.13;;;1.63;;
76204;SDS011;64986;55.672;37.628;2023-05-14T05:59:57;1.83;;;1.33;;
76204;SDS011;64986;55.672;37.628;2023-05-14T06:02:22;2.58;;;1.20;;
76204;SDS011;64986;55.672;37.628;2023-05-14T06:04:49;2.15;;;1.42;;
76204;SDS011;64986;55.672;37.628;2023-05-14T06:07:14;3.58;;;1.40;;
76204;SDS011;64986;55.672;37.628;2023-05-14T06:09:39;4.88;;;1.25;;
76204;SDS011;64986;55.672;37.628;2023-05-14T06:12:05;6.10;;;1.63;;
76204;SDS011;64986;55.672;37.628;2023-05-14T06:14:30;5.22;;;1.90;;
76204;SDS011;64986;55.672;37.628;2023-05-14T06:16:55;2.42;;;1.30;;
76204;SDS011;64986;55.672;37.628;2023-05-14T06:19:21;4.00;;;1.58;;
76204;SDS011;64986;55.672;37.628;2023-05-14T06:21:46;12.68;;;1.80;;
76204;SDS011;64986;55.672;37.628;2023-05-14T06:24:12;7.65;;;1.75;;
76204;SDS011;64986;55.672;37.628;2023-05-14T06:26:37;2.58;;;1.30;;
76204;SDS011;64986;55.672;37.628;2023-05-14T06:29:02;8.75;;;1.90;;
76204;SDS011;64986;55.672;37.628;2023-05-14T06:31:28;11.98;;;2.20;;
76204;SDS011;64986;55.672;37.628;2023-05-14T06:33:53;13.57;;;2.20;;
76204;SDS011;64986;55.672;37.628;2023-05-14T06:36:18;4.38;;;1.65;;
76204;SDS011;64986;55.672;37.628;2023-05-14T06:38:44;5.60;;;1.35;;
76204;SDS011;64986;55.672;37.628;2023-05-14T06:41:09;2.25;;;1.10;;
76204;SDS011;64986;55.672;37.628;2023-05-14T06:43:34;3.80;;;1.60;;
76204;SDS011;64986;55.672;37.628;2023-05-14T06:46:00;3.58;;;1.10;;
76204;SDS011;64986;55.672;37.628;2023-05-14T06:48:25;3.50;;;1.13;;
76204;SDS011;64986;55.672;37.628;2023-05-14T06:50:53;7.57;;;1.75;;
76204;SDS011;64986;55.672;37.628;2023-05-14T06:53:18;2.28;;;1.17;;
76204;SDS011;64986;55.672;37.628;2023-05-14T06:55:45;3.95;;;1.33;;
76204;SDS011;64986;55.672;37.628;2023-05-14T06:58:11;1.48;;;1.02;;
76204;SDS011;64986;55.672;37.628;2023-05-14T07:00:36;2.17;;;1.13;;
76204;SDS011;64986;55.672;37.628;2023-05-14T07:03:01;3.83;;;1.33;;
76204;SDS011;64986;55.672;37.628;2023-05-14T07:05:27;5.07;;;1.30;;
76204;SDS011;64986;55.672;37.628;2023-05-14T07:07:52;3.10;;;2.00;;
76204;SDS011;64986;55.672;37.628;2023-05-14T07:10:17;2.05;;;1.00;;
76204;SDS011;64986;55.672;37.628;2023-05-14T07:12:43;1.92;;;1.00;;
76204;SDS011;64986;55.672;37.628;2023-05-14T07:15:09;4.03;;;0.90;;
76204;SDS011;64986;55.672;37.628;2023-05-14T07:17:36;1.83;;;0.90;;
76204;SDS011;64986;55.672;37.628;2023-05-14T07:20:01;2.05;;;1.00;;
76204;SDS011;64986;55.672;37.628;2023-05-14T07:22:27;6.45;;;1.30;;
76204;SDS011;64986;55.672;37.628;2023-05-14T07:24:52;1.85;;;0.80;;
76204;SDS011;64986;55.672;37.628;2023-05-14T07:27:18;3.53;;;0.95;;
76204;SDS011;64986;55.672;37.628;2023-05-14T07:29:43;10.27;;;1.60;;
76204;SDS011;64986;55.672;37.628;2023-05-14T07:32:08;1.52;;;0.93;;
76204;SDS011;64986;55.672;37.628;2023-05-14T07:34:34;4.75;;;1.15;;
76204;SDS011;64986;55.672;37.628;2023-05-14T07:36:59;9.73;;;1.60;;
76204;SDS011;64986;55.672;37.628;2023-05-14T07:39:25;4.40;;;1.40;;
76204;SDS011;64986;55.672;37.628;2023-05-14T07:41:50;3.97;;;1.40;;
76204;SDS011;64986;55.672;37.628;2023-05-14T07:44:16;2.38;;;1.05;;
76204;SDS011;64986;55.672;37.628;2023-05-14T07:46:41;3.33;;;1.42;;
76204;SDS011;64986;55.672;37.628;2023-05-14T07:49:06;4.90;;;1.40;;
76204;SDS011;64986;55.672;37.628;2023-05-14T07:51:32;3.58;;;0.90;;
76204;SDS011;64986;55.672;37.628;2023-05-14T07:53:57;2.90;;;1.20;;
76204;SDS011;64986;55.672;37.628;2023-05-14T07:56:23;3.17;;;1.30;;
76204;SDS011;64986;55.672;37.628;2023-05-14T07:58:48;5.10;;;1.65;;
76204;SDS011;64986;55.672;37.628;2023-05-14T08:01:14;3.88;;;1.13;;
76204;SDS011;64986;55.672;37.628;2023-05-14T08:03:40;3.35;;;0.95;;
76204;SDS011;64986;55.672;37.628;2023-05-14T08:06:05;6.65;;;1.38;;
76204;SDS011;64986;55.672;37.628;2023-05-14T08:08:30;6.68;;;1.20;;
76204;SDS011;64986;55.672;37.628;2023-05-14T08:10:56;1.70;;;1.20;;
76204;SDS011;64986;55.672;37.628;2023-05-14T08:13:21;2.90;;;1.50;;
76204;SDS011;64986;55.672;37.628;2023-05-14T08:15:46;2.42;;;1.10;;
76204;SDS011;64986;55.672;37.628;2023-05-14T08:18:12;1.85;;;1.20;;
76204;SDS011;64986;55.672;37.628;2023-05-14T08:20:37;2.60;;;1.35;;
76204;SDS011;64986;55.672;37.628;2023-05-14T08:23:03;4.88;;;1.20;;
76204;SDS011;64986;55.672;37.628;2023-05-14T08:25:28;3.63;;;1.30;;
76204;SDS011;64986;55.672;37.628;2023-05-14T08:27:53;4.07;;;1.17;;
76204;SDS011;64986;55.672;37.628;2023-05-14T08:30:19;1.65;;;0.95;;
76204;SDS011;64986;55.672;37.628;2023-05-14T08:32:45;2.85;;;1.45;;
76204;SDS011;64986;55.672;37.628;2023-05-14T08:35:10;1.63;;;1.33;;
76204;SDS011;64986;55.672;37.628;2023-05-14T08:37:36;2.10;;;1.13;;
76204;SDS011;64986;55.672;37.628;2023-05-14T08:40:01;4.90;;;1.15;;
76204;SDS011;64986;55.672;37.628;2023-05-14T08:42:26;3.40;;;0.88;;
76204;SDS011;64986;55.672;37.628;2023-05-14T08:44:55;3.67;;;1.50;;
76204;SDS011;64986;55.672;37.628;2023-05-14T08:47:22;1.95;;;1.42;;
76204;SDS011;64986;55.672;37.628;2023-05-14T08:49:48;3.28;;;0.98;;
76204;SDS011;64986;55.672;37.628;2023-05-14T08:52:16;3.72;;;1.40;;
76204;SDS011;64986;55.672;37.628;2023-05-14T08:54:42;3.42;;;1.95;;
76204;SDS011;64986;55.672;37.628;2023-05-14T08:57:08;1.67;;;1.05;;
76204;SDS011;64986;55.672;37.628;2023-05-14T08:59:34;1.63;;;1.05;;
76204;SDS011;64986;55.672;37.628;2023-05-14T09:02:00;2.72;;;1.77;;
76204;SDS011;64986;55.672;37.628;2023-05-14T09:04:26;3.33;;;2.05;;
76204;SDS011;64986;55.672;37.628;2023-05-14T09:06:52;4.25;;;1.50;;
76204;SDS011;64986;55.672;37.628;2023-05-14T09:09:17;2.55;;;1.33;;
76204;SDS011;64986;55.672;37.628;2023-05-14T09:11:46;4.63;;;1.48;;
76204;SDS011;64986;55.672;37.628;2023-05-14T09:14:12;4.53;;;1.88;;
76204;SDS011;64986;55.672;37.628;2023-05-14T09:16:37;5.50;;;1.92;;
76204;SDS011;64986;55.672;37.628;2023-05-14T09:19:04;4.60;;;1.42;;
76204;SDS011;64986;55.672;37.628;2023-05-14T09:21:30;2.42;;;1.00;;
76204;SDS011;64986;55.672;37.628;2023-05-14T09:23:56;3.90;;;1.30;;
76204;SDS011;64986;55.672;37.628;2023-05-14T09:26:25;2.38;;;1.25;;
76204;SDS011;64986;55.672;37.628;2023-05-14T09:28:54;2.72;;;1.30;;
76204;SDS011;64986;55.672;37.628;2023-05-14T09:31:20;2.85;;;1.20;;
76204;SDS011;64986;55.672;37.628;2023-05-14T09:33:52;2.35;;;1.08;;
76204;SDS011;64986;55.672;37.628;2023-05-14T09:36:19;4.78;;;1.90;;
76204;SDS011;64986;55.672;37.628;2023-05-14T09:38:45;3.17;;;1.20;;
76204;SDS011;64986;55.672;37.628;2023-05-14T09:41:10;1.92;;;1.30;;
76204;SDS011;64986;55.672;37.628;2023-05-14T09:43:35;5.20;;;1.45;;
76204;SDS011;64986;55.672;37.628;2023-05-14T09:46:01;6.40;;;1.67;;
76204;SDS011;64986;55.672;37.628;2023-05-14T09:48:26;5.35;;;1.35;;
76204;SDS011;64986;55.672;37.628;2023-05-14T09:50:52;2.40;;;0.90;;
76204;SDS011;64986;55.672;37.628;2023-05-14T09:53:17;1.63;;;1.10;;
76204;SDS011;64986;55.672;37.628;2023-05-14T09:55:43;2.85;;;1.00;;
76204;SDS011;64986;55.672;37.628;2023-05-14T09:58:09;2.88;;;1.08;;
76204;SDS011;64986;55.672;37.628;2023-05-14T10:00:34;1.73;;;1.00;;
76204;SDS011;64986;55.672;37.628;2023-05-14T10:03:06;1.60;;;1.00;;
76204;SDS011;64986;55.672;37.628;2023-05-14T10:05:34;5.10;;;1.30;;
76204;SDS011;64986;55.672;37.628;2023-05-14T10:08:02;4.65;;;1.20;;
76204;SDS011;64986;55.672;37.628;2023-05-14T10:10:29;5.03;;;1.50;;
76204;SDS011;64986;55.672;37.628;2023-05-14T10:12:56;2.15;;;1.13;;
76204;SDS011;64986;55.672;37.628;2023-05-14T10:15:26;2.38;;;1.08;;
76204;SDS011;64986;55.672;37.628;2023-05-14T10:17:57;3.90;;;1.60;;
76204;SDS011;64986;55.672;37.628;2023-05-14T10:20:23;2.63;;;1.13;;
76204;SDS011;64986;55.672;37.628;2023-05-14T10:22:49;1.27;;;0.90;;
76204;SDS011;64986;55.672;37.628;2023-05-14T10:25:14;3.97;;;1.40;;
76204;SDS011;64986;55.672;37.628;2023-05-14T10:27:40;4.10;;;1.52;;
76204;SDS011;64986;55.672;37.628;2023-05-14T10:30:10;3.67;;;0.90;;
76204;SDS011;64986;55.672;37.628;2023-05-14T10:32:38;2.10;;;1.27;;
76204;SDS011;64986;55.672;37.628;2023-05-14T10:35:16;1.40;;;0.82;;
76204;SDS011;64986;55.672;37.628;2023-05-14T10:37:41;2.72;;;0.98;;
76204;SDS011;64986;55.672;37.628;2023-05-14T10:40:07;2.35;;;1.10;;
76204;SDS011;64986;55.672;37.628;2023-05-14T10:42:34;4.93;;;0.95;;
76204;SDS011;64986;55.672;37.628;2023-05-14T10:45:05;1.20;;;1.10;;
76204;SDS011;64986;55.672;37.628;2023-05-14T10:47:37;2.72;;;0.93;;
76204;SDS011;64986;55.672;37.628;2023-05-14T10:50:03;3.45;;;1.25;;
76204;SDS011;64986;55.672;37.628;2023-05-14T10:52:30;2.03;;;0.90;;
76204;SDS011;64986;55.672;37.628;2023-05-14T10:54:56;4.32;;;1.75;;
76204;SDS011;64986;55.672;37.628;2023-05-14T10:57:24;3.33;;;1.73;;
76204;SDS011;64986;55.672;37.628;2023-05-14T10:59:54;5.47;;;2.10;;
76204;SDS011;64986;55.672;37.628;2023-05-14T11:04:51;4.55;;;0.93;;
76204;SDS011;64986;55.672;37.628;2023-05-14T11:07:17;2.50;;;1.00;;
76204;SDS011;64986;55.672;37.628;2023-05-14T11:09:43;1.60;;;0.90;;
76204;SDS011;64986;55.672;37.628;2023-05-14T11:12:08;2.03;;;0.80;;
76204;SDS011;64986;55.672;37.628;2023-05-14T11:14:34;3.85;;;1.15;;
76204;SDS011;64986;55.672;37.628;2023-05-14T11:16:59;8.55;;;1.75;;
76204;SDS011;64986;55.672;37.628;2023-05-14T11:19:25;2.55;;;1.60;;
76204;SDS011;64986;55.672;37.628;2023-05-14T11:21:50;1.58;;;1.15;;
76204;SDS011;64986;55.672;37.628;2023-05-14T11:24:16;3.22;;;1.08;;
76204;SDS011;64986;55.672;37.628;2023-05-14T11:26:41;2.20;;;0.90;;
76204;SDS011;64986;55.672;37.628;2023-05-14T11:29:06;4.07;;;1.50;;
76204;SDS011;64986;55.672;37.628;2023-05-14T11:31:32;0.95;;;0.90;;
76204;SDS011;64986;55.672;37.628;2023-05-14T11:33:57;3.05;;;0.80;;
76204;SDS011;64986;55.672;37.628;2023-05-14T11:36:22;2.08;;;1.20;;
76204;SDS011;64986;55.672;37.628;2023-05-14T11:38:48;1.58;;;1.00;;
76204;SDS011;64986;55.672;37.628;2023-05-14T11:41:15;1.08;;;0.93;;
76204;SDS011;64986;55.672;37.628;2023-05-14T11:43:40;4.97;;;1.20;;
76204;SDS011;64986;55.672;37.628;2023-05-14T11:46:06;4.72;;;1.38;;
76204;SDS011;64986;55.672;37.628;2023-05-14T11:48:31;5.45;;;1.30;;
76204;SDS011;64986;55.672;37.628;2023-05-14T11:50:57;3.95;;;1.42;;
76204;SDS011;64986;55.672;37.628;2023-05-14T11:53:26;4.03;;;1.27;;
76204;SDS011;64986;55.672;37.628;2023-05-14T11:55:55;4.28;;;1.00;;
76204;SDS011;64986;55.672;37.628;2023-05-14T11:58:22;2.88;;;0.90;;
76204;SDS011;64986;55.672;37.628;2023-05-14T12:00:51;5.80;;;1.20;;
76204;SDS011;64986;55.672;37.628;2023-05-14T12:03:17;1.75;;;1.00;;
76204;SDS011;64986;55.672;37.628;2023-05-14T12:05:55;4.13;;;1.20;;
76204;SDS011;64986;55.672;37.628;2023-05-14T12:08:21;5.95;;;1.20;;
76204;SDS011;64986;55.672;37.628;2023-05-14T12:10:47;5.30;;;1.27;;
76204;SDS011;64986;55.672;37.628;2023-05-14T12:13:15;2.53;;;1.20;;
76204;SDS011;64986;55.672;37.628;2023-05-14T12:15:45;2.30;;;1.10;;
76204;SDS011;64986;55.672;37.628;2023-05-14T12:18:11;2.85;;;1.33;;
76204;SDS011;64986;55.672;37.628;2023-05-14T12:20:36;1.65;;;1.00;;
76204;SDS011;64986;55.672;37.628;2023-05-14T12:23:02;3.92;;;0.90;;
76204;SDS011;64986;55.672;37.628;2023-05-14T12:25:27;3.63;;;1.10;;
76204;SDS011;64986;55.672;37.628;2023-05-14T12:27:53;1.48;;;1.00;;
76204;SDS011;64986;55.672;37.628;2023-05-14T12:30:18;2.38;;;1.50;;
76204;SDS011;64986;55.672;37.628;2023-05-14T12:32:44;1.80;;;1.27;;
76204;SDS011;64986;55.672;37.628;2023-05-14T12:35:09;2.30;;;1.30;;
76204;SDS011;64986;55.672;37.628;2023-05-14T12:37:35;1.48;;;1.10;;
76204;SDS011;64986;55.672;37.628;2023-05-14T12:40:04;6.47;;;1.63;;
76204;SDS011;64986;55.672;37.628;2023-05-14T12:45:01;4.20;;;1.67;;
76204;SDS011;64986;55.672;37.628;2023-05-14T12:47:29;1.92;;;0.70;;
76204;SDS011;64986;55.672;37.628;2023-05-14T12:49:55;1.67;;;0.82;;
76204;SDS011;64986;55.672;37.628;2023-05-14T12:52:21;1.55;;;0.80;;
76204;SDS011;64986;55.672;37.628;2023-05-14T12:54:46;2.83;;;1.27;;
76204;SDS011;64986;55.672;37.628;2023-05-14T12:57:11;3.05;;;1.15;;
76204;SDS011;64986;55.672;37.628;2023-05-14T12:59:37;4.25;;;1.60;;
76204;SDS011;64986;55.672;37.628;2023-05-14T13:02:02;2.38;;;1.05;;
76204;SDS011;64986;55.672;37.628;2023-05-14T13:04:27;1.52;;;1.00;;
76204;SDS011;64986;55.672;37.628;2023-05-14T13:06:53;2.00;;;1.27;;
76204;SDS011;64986;55.672;37.628;2023-05-14T13:09:18;4.25;;;1.50;;
76204;SDS011;64986;55.672;37.628;2023-05-14T13:11:43;4.90;;;1.63;;
76204;SDS011;64986;55.672;37.628;2023-05-14T13:14:09;4.63;;;1.60;;
76204;SDS011;64986;55.672;37.628;2023-05-14T13:16:34;1.75;;;1.15;;
76204;SDS011;64986;55.672;37.628;2023-05-14T13:18:59;2.65;;;1.50;;
76204;SDS011;64986;55.672;37.628;2023-05-14T13:21:25;3.33;;;2.25;;
76204;SDS011;64986;55.672;37.628;2023-05-14T13:23:50;4.00;;;1.88;;
76204;SDS011;64986;55.672;37.628;2023-05-14T13:26:15;4.47;;;1.30;;
76204;SDS011;64986;55.672;37.628;2023-05-14T13:28:41;7.43;;;1.60;;
76204;SDS011;64986;55.672;37.628;2023-05-14T13:31:07;4.65;;;1.05;;
76204;SDS011;64986;55.672;37.628;2023-05-14T13:33:34;2.72;;;1.35;;
76204;SDS011;64986;55.672;37.628;2023-05-14T13:35:59;5.50;;;1.27;;
76204;SDS011;64986;55.672;37.628;2023-05-14T13:38:25;6.63;;;1.70;;
76204;SDS011;64986;55.672;37.628;2023-05-14T13:40:50;3.90;;;1.23;;
76204;SDS011;64986;55.672;37.628;2023-05-14T13:43:15;6.65;;;1.10;;
76204;SDS011;64986;55.672;37.628;2023-05-14T13:45:41;1.85;;;1.15;;
76204;SDS011;64986;55.672;37.628;2023-05-14T13:48:06;4.10;;;1.30;;
76204;SDS011;64986;55.672;37.628;2023-05-14T13:50:31;5.00;;;1.42;;
76204;SDS011;64986;55.672;37.628;2023-05-14T13:52:57;5.15;;;1.63;;
76204;SDS011;64986;55.672;37.628;2023-05-14T13:55:22;5.15;;;1.70;;
76204;SDS011;64986;55.672;37.628;2023-05-14T13:57:47;4.65;;;1.40;;
76204;SDS011;64986;55.672;37.628;2023-05-14T14:00:13;4.72;;;1.15;;
76204;SDS011;64986;55.672;37.628;2023-05-14T14:02:39;4.78;;;1.40;;
76204;SDS011;64986;55.672;37.628;2023-05-14T14:05:05;2.63;;;1.27;;
76204;SDS011;64986;55.672;37.628;2023-05-14T14:07:30;3.33;;;1.80;;
76204;SDS011;64986;55.672;37.628;2023-05-14T14:09:56;3.50;;;2.33;;
76204;SDS011;64986;55.672;37.628;2023-05-14T14:12:21;2.85;;;2.10;;
76204;SDS011;64986;55.672;37.628;2023-05-14T14:14:47;3.45;;;1.63;;
76204;SDS011;64986;55.672;37.628;2023-05-14T14:17:12;4.43;;;1.42;;
76204;SDS011;64986;55.672;37.628;2023-05-14T14:19:38;3.13;;;1.30;;
76204;SDS011;64986;55.672;37.628;2023-05-14T14:22:03;5.20;;;2.80;;
76204;SDS011;64986;55.672;37.628;2023-05-14T14:24:29;5.07;;;3.80;;
76204;SDS011;64986;55.672;37.628;2023-05-14T14:26:54;7.45;;;2.33;;
76204;SDS011;64986;55.672;37.628;2023-05-14T14:29:19;4.80;;;2.90;;
76204;SDS011;64986;55.672;37.628;2023-05-14T14:31:47;3.42;;;2.10;;
76204;SDS011;64986;55.672;37.628;2023-05-14T14:34:13;4.13;;;1.58;;